Time,TemperatureF,DewpointF,PressureIn,WindDirection,WindDirectionDegrees,WindSpeedMPH,WindSpeedGustMPH,Humidity,HourlyPrecipIn,Conditions,Clouds,dailyrainin,SoftwareType,DateUTC
2013-10-23 00:01:00,44.3,32.1,29.76,WNW,287,0.0,0.0,62,0.00,CLR,,0.00,WeatherDisplay:10.37,2013-10-23 04:01:00,
2013-10-23 00:03:00,44.2,32.4,29.76,WNW,287,0.0,0.0,63,0.00,CLR,,0.00,WeatherDisplay:10.37,2013-10-23 04:03:00,
2013-10-23 00:08:00,43.9,32.1,29.76,WNW,287,0.0,0.0,63,0.00,CLR,,0.00,WeatherDisplay:10.37,2013-10-23 04:08:00,
2013-10-23 00:13:00,43.6,32.2,29.76,WNW,288,0.0,0.0,64,0.00,CLR,,0.00,WeatherDisplay:10.37,2013-10-23 04:13:00,
2013-10-23 00:18:00,43.9,32.5,29.75,NNW,335,0.0,0.0,64,0.00,CLR,,0.00,WeatherDisplay:10.37,2013-10-23 04:18:00,
2013-10-23 00:23:00,44.2,32.4,29.75,NNW,335,0.0,0.0,63,0.00,CLR,,0.00,WeatherDisplay:10.37,2013-10-23 04:23:00,
2013-10-23 00:28:00,43.9,32.5,29.75,NNW,335,0.0,0.0,64,0.00,CLR,,0.00,WeatherDisplay:10.37,2013-10-23 04:28:00,
2013-10-23 00:33:00,42.3,32.1,29.75,NNW,335,0.0,0.0,67,0.00,CLR,,0.00,WeatherDisplay:10.37,2013-10-23 04:33:00,
2013-10-23 00:38:00,41.5,32.8,29.75,NE,44,0.0,0.0,71,0.00,CLR,,0.00,WeatherDisplay:10.37,2013-10-23 04:38:00,
2013-10-23 00:43:00,41.3,33.0,29.75,NE,44,0.0,0.0,72,0.00,CLR,,0.00,WeatherDisplay:10.37,2013-10-23 04:43:00,
2013-10-23 00:48:00,41.8,33.1,29.75,NE,52,0.0,0.0,71,0.00,CLR,,0.00,WeatherDisplay:10.37,2013-10-23 04:48:00,
2013-10-23 00:53:00,42.1,33.0,29.75,NE,52,0.0,0.0,70,0.00,CLR,,0.00,WeatherDisplay:10.37,2013-10-23 04:53:00,
2013-10-23 00:58:00,42.6,32.8,29.75,NE,52,0.0,0.0,68,0.00,CLR,,0.00,WeatherDisplay:10.37,2013-10-23 04:58:00,
2013-10-23 01:03:00,42.8,33.0,29.75,NE,52,0.0,0.0,68,0.00,CLR,,0.00,WeatherDisplay:10.37,2013-10-23 05:03:00,
2013-10-23 01:08:00,42.1,33.0,29.75,NE,52,0.0,0.0,70,0.00,CLR,,0.00,WeatherDisplay:10.37,2013-10-23 05:08:00,
2013-10-23 01:13:00,41.1,33.1,29.75,NE,52,0.0,0.0,73,0.00,CLR,,0.00,WeatherDisplay:10.37,2013-10-23 05:13:00,
2013-10-23 01:18:00,41.5,32.8,29.75,NE,52,0.0,0.0,71,0.00,CLR,,0.00,WeatherDisplay:10.37,2013-10-23 05:18:00,
2013-10-23 01:23:00,42.2,32.8,29.75,NE,52,0.0,0.0,69,0.00,CLR,,0.00,WeatherDisplay:10.37,2013-10-23 05:23:00,
2013-10-23 01:28:00,42.8,32.6,29.74,NE,52,0.0,0.0,67,0.00,CLR,,0.00,WeatherDisplay:10.37,2013-10-23 05:28:00,
2013-10-23 01:33:00,42.6,32.4,29.75,NE,52,0.0,0.0,67,0.00,CLR,,0.00,WeatherDisplay:10.37,2013-10-23 05:33:00,
2013-10-23 01:38:00,41.1,32.8,29.75,NE,52,0.0,0.0,72,0.00,CLR,,0.00,WeatherDisplay:10.37,2013-10-23 05:38:00,
2013-10-23 01:43:00,40.6,32.6,29.75,NE,52,0.0,0.0,73,0.00,CLR,,0.00,WeatherDisplay:10.37,2013-10-23 05:43:00,
2013-10-23 01:50:00,40.6,32.6,29.75,NE,52,0.0,0.0,73,0.00,CLR,,0.00,WeatherDisplay:10.37,2013-10-23 05:50:00,
2013-10-23 01:55:00,40.8,32.5,29.75,NE,52,0.0,0.0,72,0.00,CLR,,0.00,WeatherDisplay:10.37,2013-10-23 05:55:00,
2013-10-23 02:00:00,40.8,32.5,29.74,NE,52,0.0,0.0,72,0.00,CLR,,0.00,WeatherDisplay:10.37,2013-10-23 06:00:00,
2013-10-23 02:05:00,41.2,32.5,29.74,NE,52,0.0,0.0,71,0.00,CLR,,0.00,WeatherDisplay:10.37,2013-10-23 06:05:00,
2013-10-23 02:10:00,41.1,32.8,29.74,NE,52,0.0,0.0,72,0.00,CLR,,0.00,WeatherDisplay:10.37,2013-10-23 06:10:00,
2013-10-23 02:15:00,40.9,32.9,29.74,NE,52,0.0,0.0,73,0.00,CLR,,0.00,WeatherDisplay:10.37,2013-10-23 06:15:00,
2013-10-23 02:20:00,40.8,32.8,29.74,NE,52,0.0,0.0,73,0.00,CLR,,0.00,WeatherDisplay:10.37,2013-10-23 06:20:00,
2013-10-23 02:25:00,40.8,32.5,29.74,NE,52,0.0,0.0,72,0.00,CLR,,0.00,WeatherDisplay:10.37,2013-10-23 06:25:00,
2013-10-23 02:30:00,40.5,32.5,29.74,NE,52,0.0,0.0,73,0.00,CLR,,0.00,WeatherDisplay:10.37,2013-10-23 06:30:00,
2013-10-23 02:35:00,39.9,32.3,29.74,NE,52,0.0,0.0,74,0.00,CLR,,0.00,WeatherDisplay:10.37,2013-10-23 06:35:00,
2013-10-23 02:40:00,39.5,32.2,29.74,NE,52,0.0,0.0,75,0.00,CLR,,0.00,WeatherDisplay:10.37,2013-10-23 06:40:00,
2013-10-23 02:45:00,39.3,32.4,29.74,NE,52,0.0,0.0,76,0.00,CLR,,0.00,WeatherDisplay:10.37,2013-10-23 06:45:00,
2013-10-23 02:50:00,39.5,32.2,29.74,NE,52,0.0,0.0,75,0.00,CLR,,0.00,WeatherDisplay:10.37,2013-10-23 06:50:00,
2013-10-23 02:55:00,39.6,32.0,29.74,NE,52,0.0,0.0,74,0.00,CLR,,0.00,WeatherDisplay:10.37,2013-10-23 06:55:00,
2013-10-23 03:00:00,39.2,31.6,29.74,NE,52,0.0,0.0,74,0.00,CLR,,0.00,WeatherDisplay:10.37,2013-10-23 07:00:00,
2013-10-23 03:05:00,38.5,31.9,29.74,NE,52,0.0,0.0,77,0.00,CLR,,0.00,WeatherDisplay:10.37,2013-10-23 07:05:00,
2013-10-23 03:10:00,38.6,32.3,29.74,NE,52,0.0,0.0,78,0.00,CLR,,0.00,WeatherDisplay:10.37,2013-10-23 07:10:00,
2013-10-23 03:15:00,38.6,32.0,29.74,NE,52,0.0,0.0,77,0.00,CLR,,0.00,WeatherDisplay:10.37,2013-10-23 07:15:00,
2013-10-23 03:20:00,38.8,32.2,29.73,NE,52,0.0,0.0,77,0.00,CLR,,0.00,WeatherDisplay:10.37,2013-10-23 07:20:00,
2013-10-23 03:25:00,39.1,32.5,29.73,NE,52,0.0,0.0,77,0.00,CLR,,0.00,WeatherDisplay:10.37,2013-10-23 07:25:00,
2013-10-23 03:30:00,39.3,32.4,29.73,NE,52,0.0,0.0,76,0.00,CLR,,0.00,WeatherDisplay:10.37,2013-10-23 07:30:00,
2013-10-23 03:35:00,39.3,32.4,29.73,NE,52,0.0,0.0,76,0.00,CLR,,0.00,WeatherDisplay:10.37,2013-10-23 07:35:00,
2013-10-23 03:40:00,39.3,32.4,29.73,NE,52,0.0,0.0,76,0.00,CLR,,0.00,WeatherDisplay:10.37,2013-10-23 07:40:00,
2013-10-23 03:45:00,39.3,32.0,29.73,NE,52,0.0,0.0,75,0.00,CLR,,0.00,WeatherDisplay:10.37,2013-10-23 07:45:00,
2013-10-23 03:50:00,39.5,32.2,29.73,NE,52,0.0,0.0,75,0.00,CLR,,0.00,WeatherDisplay:10.37,2013-10-23 07:50:00,
2013-10-23 03:55:00,39.3,32.4,29.73,NE,52,0.0,0.0,76,0.00,CLR,,0.00,WeatherDisplay:10.37,2013-10-23 07:55:00,
2013-10-23 04:00:00,39.2,32.3,29.73,NE,52,0.0,0.0,76,0.00,CLR,,0.00,WeatherDisplay:10.37,2013-10-23 08:00:00,
2013-10-23 04:05:00,39.2,32.6,29.73,NE,52,0.0,0.0,77,0.00,CLR,,0.00,WeatherDisplay:10.37,2013-10-23 08:05:00,
2013-10-23 04:10:00,39.1,32.5,29.73,NE,52,0.0,0.0,77,0.00,CLR,,0.00,WeatherDisplay:10.37,2013-10-23 08:10:00,
2013-10-23 04:15:00,39.2,32.3,29.72,NE,52,0.0,0.0,76,0.00,CLR,,0.00,WeatherDisplay:10.37,2013-10-23 08:15:00,
2013-10-23 04:20:00,39.3,32.0,29.72,NE,52,0.0,0.0,75,0.00,CLR,,0.00,WeatherDisplay:10.37,2013-10-23 08:20:00,
2013-10-23 04:25:00,39.5,31.9,29.72,NE,52,0.0,0.0,74,0.00,CLR,,0.00,WeatherDisplay:10.37,2013-10-23 08:25:00,
2013-10-23 04:30:00,39.2,32.3,29.72,NE,52,0.0,0.0,76,0.00,CLR,,0.00,WeatherDisplay:10.37,2013-10-23 08:30:00,
2013-10-23 04:35:00,39.1,32.2,29.71,NE,52,0.0,0.0,76,0.00,CLR,,0.00,WeatherDisplay:10.37,2013-10-23 08:35:00,
2013-10-23 04:40:00,39.2,32.3,29.71,NE,52,0.0,0.0,76,0.00,CLR,,0.00,WeatherDisplay:10.37,2013-10-23 08:40:00,
2013-10-23 04:45:00,39.3,32.0,29.71,NE,52,0.0,0.0,75,0.00,CLR,,0.00,WeatherDisplay:10.37,2013-10-23 08:45:00,
2013-10-23 04:50:00,39.1,32.2,29.71,NE,52,0.0,0.0,76,0.00,CLR,,0.00,WeatherDisplay:10.37,2013-10-23 08:50:00,
2013-10-23 04:55:00,38.8,32.2,29.71,NE,52,0.0,0.0,77,0.00,CLR,,0.00,WeatherDisplay:10.37,2013-10-23 08:55:00,
2013-10-23 05:00:00,38.3,32.0,29.71,NE,52,0.0,0.0,78,0.00,CLR,,0.00,WeatherDisplay:10.37,2013-10-23 09:00:00,
2013-10-23 05:05:00,38.0,31.7,29.70,NE,52,0.0,0.0,78,0.00,CLR,,0.00,WeatherDisplay:10.37,2013-10-23 09:05:00,
2013-10-23 05:10:00,37.9,31.7,29.71,NE,52,0.0,0.0,78,0.00,CLR,,0.00,WeatherDisplay:10.37,2013-10-23 09:10:00,
2013-10-23 05:15:00,37.6,32.0,29.71,NE,52,0.0,0.0,80,0.00,CLR,,0.00,WeatherDisplay:10.37,2013-10-23 09:15:00,
2013-10-23 05:20:00,37.5,32.2,29.71,NE,52,0.0,0.0,81,0.00,CLR,,0.00,WeatherDisplay:10.37,2013-10-23 09:20:00,
2013-10-23 05:25:00,37.2,31.9,29.71,NE,52,0.0,0.0,81,0.00,CLR,,0.00,WeatherDisplay:10.37,2013-10-23 09:25:00,
2013-10-23 05:30:00,36.8,31.8,29.71,NE,52,0.0,0.0,82,0.00,CLR,,0.00,WeatherDisplay:10.37,2013-10-23 09:30:00,
2013-10-23 05:35:00,36.8,32.1,29.71,NE,52,0.0,0.0,83,0.00,CLR,,0.00,WeatherDisplay:10.37,2013-10-23 09:35:00,
2013-10-23 05:40:00,36.6,31.9,29.71,NE,52,0.0,0.0,83,0.00,CLR,,0.00,WeatherDisplay:10.37,2013-10-23 09:40:00,
2013-10-23 05:45:00,36.5,31.8,29.71,NE,52,0.0,0.0,83,0.00,CLR,,0.00,WeatherDisplay:10.37,2013-10-23 09:45:00,
2013-10-23 05:50:00,36.3,31.6,29.71,NE,52,0.0,0.0,83,0.00,CLR,,0.00,WeatherDisplay:10.37,2013-10-23 09:50:00,
2013-10-23 05:55:00,35.9,31.5,29.72,NE,52,0.0,0.0,84,0.00,CLR,,0.00,WeatherDisplay:10.37,2013-10-23 09:55:00,
2013-10-23 06:00:00,35.9,31.8,29.72,NE,52,0.0,0.0,85,0.00,CLR,,0.00,WeatherDisplay:10.37,2013-10-23 10:00:00,
2013-10-23 06:05:00,36.0,31.9,29.71,NE,52,0.0,0.0,85,0.00,CLR,,0.00,WeatherDisplay:10.37,2013-10-23 10:05:00,
2013-10-23 06:10:00,36.0,31.9,29.71,NE,52,0.0,0.0,85,0.00,CLR,,0.00,WeatherDisplay:10.37,2013-10-23 10:10:00,
2013-10-23 06:15:00,36.0,31.9,29.72,NE,52,0.0,0.0,85,0.00,CLR,,0.00,WeatherDisplay:10.37,2013-10-23 10:15:00,
2013-10-23 06:20:00,35.8,31.4,29.72,ENE,75,0.0,0.0,84,0.00,CLR,,0.00,WeatherDisplay:10.37,2013-10-23 10:20:00,
2013-10-23 06:25:00,35.3,31.2,29.72,ENE,75,0.0,0.0,85,0.00,CLR,,0.00,WeatherDisplay:10.37,2013-10-23 10:25:00,
2013-10-23 06:30:00,35.3,31.8,29.70,ENE,75,0.0,0.0,87,0.00,CLR,,0.00,WeatherDisplay:10.37,2013-10-23 10:30:00,
2013-10-23 06:35:00,35.2,31.7,29.70,ENE,73,0.0,0.0,87,0.00,CLR,,0.00,WeatherDisplay:10.37,2013-10-23 10:35:00,
2013-10-23 06:40:00,35.2,31.7,29.71,ENE,73,0.0,0.0,87,0.00,CLR,,0.00,WeatherDisplay:10.37,2013-10-23 10:40:00,
2013-10-23 06:45:00,35.2,31.7,29.70,ENE,73,0.0,0.0,87,0.00,CLR,,0.00,WeatherDisplay:10.37,2013-10-23 10:45:00,
2013-10-23 06:50:00,35.2,32.0,29.72,ENE,73,0.0,0.0,88,0.00,CLR,,0.00,WeatherDisplay:10.37,2013-10-23 10:50:00,
2013-10-23 06:55:00,34.9,31.4,29.72,ENE,78,0.0,0.0,87,0.00,CLR,,0.00,WeatherDisplay:10.37,2013-10-23 10:55:00,
2013-10-23 07:00:00,34.7,31.5,29.72,ENE,78,0.0,0.0,88,0.00,CLR,,0.00,WeatherDisplay:10.37,2013-10-23 11:00:00,
2013-10-23 07:05:00,34.9,32.0,29.72,ENE,78,0.0,0.0,89,0.00,CLR,,0.00,WeatherDisplay:10.37,2013-10-23 11:05:00,
2013-10-23 07:10:00,34.9,31.7,29.70,ENE,76,0.0,0.0,88,0.00,CLR,,0.00,WeatherDisplay:10.37,2013-10-23 11:10:00,
2013-10-23 07:15:00,34.9,32.0,29.71,ENE,66,0.0,0.0,89,0.00,CLR,,0.00,WeatherDisplay:10.37,2013-10-23 11:15:00,
2013-10-23 07:20:00,35.0,32.1,29.72,East,82,0.0,0.0,89,0.00,CLR,,0.00,WeatherDisplay:10.37,2013-10-23 11:20:00,
2013-10-23 07:25:00,34.6,31.7,29.72,East,82,0.0,0.0,89,0.00,CLR,,0.00,WeatherDisplay:10.37,2013-10-23 11:25:00,
2013-10-23 07:30:00,34.7,32.1,29.71,East,82,0.0,0.0,90,0.00,CLR,,0.00,WeatherDisplay:10.37,2013-10-23 11:30:00,
2013-10-23 07:35:00,34.6,32.0,29.71,East,82,0.0,0.0,90,0.00,CLR,,0.00,WeatherDisplay:10.37,2013-10-23 11:35:00,
2013-10-23 07:40:00,34.6,32.0,29.71,East,79,0.0,0.0,90,0.00,CLR,,0.00,WeatherDisplay:10.37,2013-10-23 11:40:00,
2013-10-23 07:45:00,34.7,32.3,29.71,East,79,0.0,0.0,91,0.00,CLR,,0.00,WeatherDisplay:10.37,2013-10-23 11:45:00,
2013-10-23 07:50:00,35.2,32.8,29.71,East,79,0.0,0.0,91,0.00,CLR,,0.00,WeatherDisplay:10.37,2013-10-23 11:50:00,
2013-10-23 07:55:00,35.3,32.9,29.71,East,79,0.0,0.0,91,0.00,CLR,,0.00,WeatherDisplay:10.37,2013-10-23 11:55:00,
2013-10-23 08:00:00,35.6,33.2,29.71,East,79,0.0,0.0,91,0.00,CLR,,0.00,WeatherDisplay:10.37,2013-10-23 12:00:00,
2013-10-23 08:05:00,35.8,33.4,29.71,East,79,0.0,0.0,91,0.00,CLR,,0.00,WeatherDisplay:10.37,2013-10-23 12:05:00,
2013-10-23 08:10:00,35.9,33.5,29.72,East,79,0.0,0.0,91,0.00,CLR,,0.00,WeatherDisplay:10.37,2013-10-23 12:10:00,
2013-10-23 08:15:00,36.2,33.8,29.72,East,79,0.0,0.0,91,0.00,CLR,,0.00,WeatherDisplay:10.37,2013-10-23 12:15:00,
2013-10-23 08:20:00,36.3,33.9,29.72,East,79,0.0,0.0,91,0.00,CLR,,0.00,WeatherDisplay:10.37,2013-10-23 12:20:00,
2013-10-23 08:25:00,36.8,34.4,29.72,East,79,0.0,0.0,91,0.00,CLR,,0.00,WeatherDisplay:10.37,2013-10-23 12:25:00,
2013-10-23 08:30:00,36.6,33.9,29.72,East,79,0.0,0.0,90,0.00,CLR,,0.00,WeatherDisplay:10.37,2013-10-23 12:30:00,
2013-10-23 08:35:00,36.6,33.9,29.72,East,79,0.0,0.0,90,0.00,CLR,,0.00,WeatherDisplay:10.37,2013-10-23 12:35:00,
2013-10-23 08:40:00,36.6,33.9,29.72,East,79,0.0,0.0,90,0.00,CLR,,0.00,WeatherDisplay:10.37,2013-10-23 12:40:00,
2013-10-23 08:45:00,36.9,34.2,29.72,East,79,0.0,0.0,90,0.00,CLR,,0.00,WeatherDisplay:10.37,2013-10-23 12:45:00,
2013-10-23 08:50:00,37.0,34.1,29.72,East,79,0.0,0.0,89,0.00,CLR,,0.00,WeatherDisplay:10.37,2013-10-23 12:50:00,
2013-10-23 08:55:00,37.2,34.3,29.72,East,79,0.0,0.0,89,0.00,CLR,,0.00,WeatherDisplay:10.37,2013-10-23 12:55:00,
2013-10-23 09:00:00,37.5,34.3,29.72,East,79,0.0,0.0,88,0.00,CLR,,0.00,WeatherDisplay:10.37,2013-10-23 13:00:00,
2013-10-23 09:05:00,37.8,34.3,29.71,East,79,0.0,0.0,87,0.00,CLR,,0.00,WeatherDisplay:10.37,2013-10-23 13:05:00,
2013-10-23 09:10:00,38.2,34.7,29.71,East,79,0.0,0.0,87,0.00,CLR,,0.00,WeatherDisplay:10.37,2013-10-23 13:10:00,
2013-10-23 09:15:00,38.6,35.1,29.71,East,79,0.0,0.0,87,0.00,CLR,,0.00,WeatherDisplay:10.37,2013-10-23 13:15:00,
2013-10-23 09:20:00,39.1,35.6,29.72,East,79,0.0,0.0,87,0.00,CLR,,0.00,WeatherDisplay:10.37,2013-10-23 13:20:00,
2013-10-23 09:25:00,39.1,35.8,29.71,East,79,0.0,0.0,88,0.00,CLR,,0.00,WeatherDisplay:10.37,2013-10-23 13:25:00,
2013-10-23 09:30:00,39.1,35.8,29.70,East,79,0.0,0.0,88,0.00,CLR,,0.00,WeatherDisplay:10.37,2013-10-23 13:30:00,
2013-10-23 09:35:00,39.3,36.0,29.69,East,79,0.0,0.0,88,0.00,CLR,,0.00,WeatherDisplay:10.37,2013-10-23 13:35:00,
2013-10-23 09:40:00,39.6,36.3,29.69,East,79,0.0,0.0,88,0.00,CLR,,0.00,WeatherDisplay:10.37,2013-10-23 13:40:00,
2013-10-23 09:45:00,39.9,36.3,29.69,East,79,0.0,0.0,87,0.00,CLR,,0.00,WeatherDisplay:10.37,2013-10-23 13:45:00,
2013-10-23 09:50:00,40.3,37.0,29.69,East,79,0.0,0.0,88,0.00,CLR,,0.00,WeatherDisplay:10.37,2013-10-23 13:50:00,
2013-10-23 09:55:00,40.5,36.9,29.69,East,79,0.0,0.0,87,0.00,CLR,,0.00,WeatherDisplay:10.37,2013-10-23 13:55:00,
2013-10-23 10:00:00,40.3,37.0,29.69,East,79,0.0,0.0,88,0.00,CLR,,0.00,WeatherDisplay:10.37,2013-10-23 14:00:00,
2013-10-23 10:05:00,40.5,37.2,29.69,East,79,0.0,0.0,88,0.00,CLR,,0.00,WeatherDisplay:10.37,2013-10-23 14:05:00,
2013-10-23 10:10:00,40.6,37.3,29.69,East,79,0.0,0.0,88,0.00,CLR,,0.00,WeatherDisplay:10.37,2013-10-23 14:10:00,
2013-10-23 10:15:00,40.8,37.2,29.69,East,79,0.0,0.0,87,0.00,CLR,,0.00,WeatherDisplay:10.37,2013-10-23 14:15:00,
2013-10-23 10:20:00,40.9,37.3,29.69,East,79,0.0,0.0,87,0.00,CLR,,0.00,WeatherDisplay:10.37,2013-10-23 14:20:00,
2013-10-23 10:25:00,40.9,37.0,29.69,East,79,0.0,0.0,86,0.00,CLR,,0.00,WeatherDisplay:10.37,2013-10-23 14:25:00,
2013-10-23 10:30:00,41.2,36.4,29.69,East,79,0.0,0.0,83,0.00,CLR,,0.00,WeatherDisplay:10.37,2013-10-23 14:30:00,
2013-10-23 10:35:00,41.8,35.4,29.69,East,79,0.0,0.0,78,0.00,CLR,,0.00,WeatherDisplay:10.37,2013-10-23 14:35:00,
2013-10-23 10:40:00,42.2,35.5,29.68,East,79,0.0,0.0,77,0.00,CLR,,0.00,WeatherDisplay:10.37,2013-10-23 14:40:00,
2013-10-23 10:45:00,42.9,35.9,29.67,ENE,75,0.0,0.0,76,0.00,CLR,,0.00,WeatherDisplay:10.37,2013-10-23 14:45:00,
2013-10-23 10:50:00,43.5,36.1,29.66,ENE,64,0.0,0.0,75,0.00,CLR,,0.00,WeatherDisplay:10.37,2013-10-23 14:50:00,
2013-10-23 10:55:00,44.2,36.4,29.66,ENE,66,0.0,0.0,74,0.00,CLR,,0.00,WeatherDisplay:10.37,2013-10-23 14:55:00,
2013-10-23 11:00:00,44.8,36.7,29.66,NNE,31,0.0,0.0,73,0.00,CLR,,0.00,WeatherDisplay:10.37,2013-10-23 15:00:00,
2013-10-23 11:05:00,45.2,36.7,29.66,North,0,0.0,0.0,72,0.00,CLR,,0.00,WeatherDisplay:10.37,2013-10-23 15:05:00,
2013-10-23 11:10:00,46.0,37.1,29.65,NE,42,0.1,3.5,71,0.00,CLR,,0.00,WeatherDisplay:10.37,2013-10-23 15:10:00,
2013-10-23 11:15:00,46.7,37.1,29.64,North,0,0.0,3.5,69,0.00,CLR,,0.00,WeatherDisplay:10.37,2013-10-23 15:15:00,
2013-10-23 11:20:00,47.4,36.2,29.64,North,359,2.6,5.8,65,0.00,CLR,,0.00,WeatherDisplay:10.37,2013-10-23 15:20:00,
2013-10-23 11:25:00,47.9,35.1,29.64,North,0,5.4,6.9,61,0.00,CLR,,0.00,WeatherDisplay:10.37,2013-10-23 15:25:00,
2013-10-23 11:30:00,48.5,36.1,29.64,North,349,1.4,5.8,62,0.00,CLR,,0.00,WeatherDisplay:10.37,2013-10-23 15:30:00,
2013-10-23 11:35:00,49.1,35.4,29.64,North,6,4.1,8.1,59,0.00,CLR,,0.00,WeatherDisplay:10.37,2013-10-23 15:35:00,
2013-10-23 11:40:00,48.9,35.2,29.64,North,1,4.3,4.6,59,0.00,CLR,,0.00,WeatherDisplay:10.37,2013-10-23 15:40:00,
2013-10-23 11:45:00,49.4,35.7,29.64,North,350,0.1,1.2,59,0.00,CLR,,0.00,WeatherDisplay:10.37,2013-10-23 15:45:00,
2013-10-23 11:50:00,49.6,35.0,29.64,NE,35,1.5,4.6,57,0.00,CLR,,0.00,WeatherDisplay:10.37,2013-10-23 15:50:00,
2013-10-23 11:55:00,49.9,35.7,29.64,NE,38,0.0,0.0,58,0.00,CLR,,0.00,WeatherDisplay:10.37,2013-10-23 15:55:00,
2013-10-23 12:00:00,50.2,35.5,29.63,NNE,18,1.8,3.5,57,0.00,CLR,,0.00,WeatherDisplay:10.37,2013-10-23 16:00:00,
2013-10-23 12:05:00,50.2,35.1,29.63,North,6,2.2,5.8,56,0.00,CLR,,0.00,WeatherDisplay:10.37,2013-10-23 16:05:00,
2013-10-23 12:10:00,50.4,35.3,29.63,North,3,2.2,4.6,56,0.00,CLR,,0.00,WeatherDisplay:10.37,2013-10-23 16:10:00,
2013-10-23 12:15:00,50.2,35.1,29.62,North,4,2.2,4.6,56,0.00,CLR,,0.00,WeatherDisplay:10.37,2013-10-23 16:15:00,
2013-10-23 12:21:00,51.0,35.8,29.61,North,8,0.0,0.0,56,0.00,CLR,,0.00,WeatherDisplay:10.37,2013-10-23 16:21:00,
2013-10-23 12:26:00,51.3,35.7,29.61,NW,318,0.9,2.3,55,0.00,CLR,,0.00,WeatherDisplay:10.37,2013-10-23 16:26:00,
2013-10-23 12:31:00,51.9,35.8,29.61,NE,40,3.9,5.8,54,0.00,CLR,,0.00,WeatherDisplay:10.37,2013-10-23 16:31:00,
2013-10-23 12:36:00,51.7,35.6,29.60,NE,41,0.0,0.0,54,0.00,CLR,,0.00,WeatherDisplay:10.37,2013-10-23 16:36:00,
2013-10-23 12:41:00,52.0,35.4,29.60,NE,45,0.0,0.0,53,0.00,CLR,,0.00,WeatherDisplay:10.37,2013-10-23 16:41:00,
2013-10-23 12:46:00,51.7,35.6,29.60,NNE,27,0.0,0.0,54,0.00,CLR,,0.00,WeatherDisplay:10.37,2013-10-23 16:46:00,
2013-10-23 12:51:00,51.7,35.6,29.59,NNE,28,0.0,0.0,54,0.00,CLR,,0.00,WeatherDisplay:10.37,2013-10-23 16:51:00,
2013-10-23 12:56:00,52.2,37.0,29.59,North,10,1.0,4.6,56,0.00,CLR,,0.00,WeatherDisplay:10.37,2013-10-23 16:56:00,
2013-10-23 13:01:00,52.2,36.5,29.59,North,0,0.6,3.5,55,0.00,CLR,,0.00,WeatherDisplay:10.37,2013-10-23 17:01:00,
2013-10-23 13:06:00,52.2,35.6,29.59,North,359,3.0,4.6,53,0.00,CLR,,0.00,WeatherDisplay:10.37,2013-10-23 17:06:00,
2013-10-23 13:11:00,52.0,35.9,29.58,NNE,20,0.6,5.0,54,0.00,CLR,,0.00,WeatherDisplay:10.37,2013-10-23 17:11:00,
2013-10-23 13:16:00,52.0,35.9,29.58,NNE,21,0.0,0.0,54,0.00,CLR,,0.00,WeatherDisplay:10.37,2013-10-23 17:16:00,
2013-10-23 13:21:00,52.5,36.3,29.57,NNE,21,0.0,0.0,54,0.00,CLR,,0.00,WeatherDisplay:10.37,2013-10-23 17:21:00,
2013-10-23 13:26:00,53.1,36.9,29.57,NNE,21,0.0,0.0,54,0.00,CLR,,0.00,WeatherDisplay:10.37,2013-10-23 17:26:00,
2013-10-23 13:31:00,53.5,36.3,29.57,NNE,16,0.0,0.0,52,0.00,CLR,,0.00,WeatherDisplay:10.37,2013-10-23 17:31:00,
2013-10-23 13:36:00,53.3,36.6,29.57,NNE,18,0.0,0.0,53,0.00,CLR,,0.00,WeatherDisplay:10.37,2013-10-23 17:36:00,
2013-10-23 13:41:00,53.1,36.9,29.57,North,359,0.0,0.0,54,0.00,CLR,,0.00,WeatherDisplay:10.37,2013-10-23 17:41:00,
2013-10-23 13:46:00,53.1,36.4,29.57,North,349,0.0,0.0,53,0.00,CLR,,0.00,WeatherDisplay:10.37,2013-10-23 17:46:00,
2013-10-23 13:51:00,52.6,35.9,29.57,WSW,247,0.3,2.3,53,0.00,CLR,,0.00,WeatherDisplay:10.37,2013-10-23 17:51:00,
2013-10-23 13:56:00,52.5,37.2,29.57,WSW,248,0.0,0.0,56,0.00,CLR,,0.00,WeatherDisplay:10.37,2013-10-23 17:56:00,
2013-10-23 14:01:00,52.6,36.4,29.57,WSW,248,0.0,0.0,54,0.00,CLR,,0.00,WeatherDisplay:10.37,2013-10-23 18:01:00,
2013-10-23 14:06:00,52.5,35.8,29.58,WSW,254,0.0,0.0,53,0.00,CLR,,0.00,WeatherDisplay:10.37,2013-10-23 18:06:00,
2013-10-23 14:11:00,52.3,36.1,29.58,WSW,257,0.0,0.0,54,0.00,CLR,,0.00,WeatherDisplay:10.37,2013-10-23 18:11:00,
2013-10-23 14:16:00,52.0,35.4,29.58,WSW,258,0.0,0.0,53,0.00,CLR,,0.00,WeatherDisplay:10.37,2013-10-23 18:16:00,
2013-10-23 14:21:00,51.9,34.8,29.58,West,270,1.1,2.0,52,0.00,CLR,,0.00,WeatherDisplay:10.37,2013-10-23 18:21:00,
2013-10-23 14:26:00,51.9,35.8,29.58,WNW,287,0.0,1.0,54,0.00,CLR,,0.00,WeatherDisplay:10.37,2013-10-23 18:26:00,
2013-10-23 14:31:00,51.9,34.8,29.58,WNW,299,1.7,5.8,52,0.00,CLR,,0.00,WeatherDisplay:10.37,2013-10-23 18:31:00,
2013-10-23 14:36:00,51.7,34.1,29.58,WNW,291,0.3,4.0,51,0.00,CLR,,0.00,WeatherDisplay:10.37,2013-10-23 18:36:00,
2013-10-23 14:41:00,51.3,32.3,29.58,West,277,6.0,13.8,48,0.00,CLR,,0.00,WeatherDisplay:10.37,2013-10-23 18:41:00,
2013-10-23 14:46:00,50.7,32.7,29.58,NW,308,5.4,8.1,50,0.00,CLR,,0.00,WeatherDisplay:10.37,2013-10-23 18:46:00,
2013-10-23 14:51:00,49.6,34.1,29.58,WNW,294,4.7,11.5,55,0.00,CLR,,0.00,WeatherDisplay:10.37,2013-10-23 18:51:00,
2013-10-23 14:56:00,48.8,35.1,29.58,NW,319,2.8,5.8,59,0.00,CLR,,0.00,WeatherDisplay:10.37,2013-10-23 18:56:00,
2013-10-23 15:01:00,48.3,36.3,29.58,NNW,339,3.1,8.0,63,0.00,CLR,,0.00,WeatherDisplay:10.37,2013-10-23 19:01:00,
2013-10-23 15:06:00,47.7,36.1,29.59,West,280,2.0,3.5,64,0.00,CLR,,0.00,WeatherDisplay:10.37,2013-10-23 19:06:00,
2013-10-23 15:11:00,47.1,37.8,29.59,NW,319,0.8,4.6,70,0.00,CLR,,0.00,WeatherDisplay:10.37,2013-10-23 19:11:00,
2013-10-23 15:16:00,46.7,37.1,29.59,WNW,282,0.1,2.0,69,0.00,CLR,,0.00,WeatherDisplay:10.37,2013-10-23 19:16:00,
2013-10-23 15:21:00,46.5,37.2,29.59,NW,311,0.0,2.3,70,0.00,CLR,,0.00,WeatherDisplay:10.37,2013-10-23 19:21:00,
2013-10-23 15:26:00,46.7,38.1,29.59,WSW,241,0.0,0.0,72,0.00,CLR,,0.00,WeatherDisplay:10.37,2013-10-23 19:26:00,
2013-10-23 15:31:00,46.8,38.2,29.59,WNW,298,1.0,4.0,72,0.00,CLR,,0.00,WeatherDisplay:10.37,2013-10-23 19:31:00,
2013-10-23 15:36:00,47.1,37.1,29.59,West,281,2.6,3.5,68,0.01,RA,,0.01,WeatherDisplay:10.37,2013-10-23 19:36:00,
2013-10-23 15:41:00,47.3,36.5,29.59,WSW,244,0.0,0.0,66,0.01,RA,,0.01,WeatherDisplay:10.37,2013-10-23 19:41:00,
2013-10-23 15:46:00,47.4,36.6,29.59,West,271,0.1,1.0,66,0.01,CLR,,0.01,WeatherDisplay:10.37,2013-10-23 19:46:00,
2013-10-23 15:51:00,47.6,37.2,29.59,West,272,0.0,0.0,67,0.01,CLR,,0.01,WeatherDisplay:10.37,2013-10-23 19:51:00,
2013-10-23 15:56:00,47.9,37.5,29.59,West,275,0.0,0.0,67,0.01,CLR,,0.01,WeatherDisplay:10.37,2013-10-23 19:56:00,
2013-10-23 16:01:00,47.7,35.7,29.59,WNW,287,5.5,6.9,63,0.01,CLR,,0.01,WeatherDisplay:10.37,2013-10-23 20:01:00,
2013-10-23 16:06:00,47.6,34.8,29.59,NNW,329,1.9,8.1,61,0.01,CLR,,0.01,WeatherDisplay:10.37,2013-10-23 20:06:00,
2013-10-23 16:11:00,47.6,35.2,29.59,West,275,1.7,5.8,62,0.01,CLR,,0.01,WeatherDisplay:10.37,2013-10-23 20:11:00,
2013-10-23 16:16:00,47.7,34.9,29.59,WNW,291,0.0,0.0,61,0.01,CLR,,0.01,WeatherDisplay:10.37,2013-10-23 20:16:00,
2013-10-23 16:21:00,47.9,35.1,29.59,WSW,251,0.0,0.0,61,0.01,CLR,,0.01,WeatherDisplay:10.37,2013-10-23 20:21:00,
2013-10-23 16:26:00,48.0,35.2,29.59,NW,311,1.2,3.5,61,0.01,CLR,,0.01,WeatherDisplay:10.37,2013-10-23 20:26:00,
2013-10-23 16:31:00,48.0,34.3,29.59,NW,304,0.5,5.8,59,0.01,CLR,,0.01,WeatherDisplay:10.37,2013-10-23 20:31:00,
2013-10-23 16:36:00,47.9,34.7,29.59,NW,315,2.2,5.8,60,0.00,CLR,,0.01,WeatherDisplay:10.37,2013-10-23 20:36:00,
2013-10-23 16:41:00,47.7,34.5,29.59,WNW,302,0.0,0.0,60,0.00,CLR,,0.01,WeatherDisplay:10.37,2013-10-23 20:41:00,
2013-10-23 16:46:00,47.6,35.2,29.59,NW,318,0.0,0.0,62,0.00,CLR,,0.01,WeatherDisplay:10.37,2013-10-23 20:46:00,
2013-10-23 16:51:00,47.3,34.9,29.59,West,260,0.0,0.0,62,0.00,CLR,,0.01,WeatherDisplay:10.37,2013-10-23 20:51:00,
2013-10-23 16:56:00,47.1,34.7,29.60,NNW,332,0.0,0.0,62,0.00,CLR,,0.01,WeatherDisplay:10.37,2013-10-23 20:56:00,
2013-10-23 17:01:00,47.1,35.1,29.60,NNW,329,1.0,3.5,63,0.00,CLR,,0.01,WeatherDisplay:10.37,2013-10-23 21:01:00,
2013-10-23 17:06:00,47.0,35.4,29.60,WNW,302,1.5,3.5,64,0.00,CLR,,0.01,WeatherDisplay:10.37,2013-10-23 21:06:00,
2013-10-23 17:11:00,46.8,36.0,29.60,NW,305,0.3,2.3,66,0.00,CLR,,0.01,WeatherDisplay:10.37,2013-10-23 21:11:00,
2013-10-23 17:16:00,46.5,35.7,29.61,West,278,0.0,0.0,66,0.00,CLR,,0.01,WeatherDisplay:10.37,2013-10-23 21:16:00,
2013-10-23 17:21:00,46.4,35.7,29.61,NNW,328,0.0,1.2,66,0.00,CLR,,0.01,WeatherDisplay:10.37,2013-10-23 21:21:00,
2013-10-23 17:26:00,46.4,35.7,29.61,NW,316,0.0,0.0,66,0.00,CLR,,0.01,WeatherDisplay:10.37,2013-10-23 21:26:00,
2013-10-23 17:31:00,46.4,35.7,29.61,WNW,299,0.0,0.0,66,0.00,CLR,,0.01,WeatherDisplay:10.37,2013-10-23 21:31:00,
2013-10-23 17:36:00,46.2,35.8,29.61,WNW,301,1.3,2.3,67,0.00,CLR,,0.01,WeatherDisplay:10.37,2013-10-23 21:36:00,
2013-10-23 17:41:00,46.2,35.8,29.61,WNW,302,0.0,0.0,67,0.00,CLR,,0.01,WeatherDisplay:10.37,2013-10-23 21:41:00,
2013-10-23 17:46:00,46.2,36.2,29.61,NW,319,0.2,0.0,68,0.00,CLR,,0.01,WeatherDisplay:10.37,2013-10-23 21:46:00,
2013-10-23 17:51:00,46.1,36.1,29.62,NW,308,0.0,1.2,68,0.00,CLR,,0.01,WeatherDisplay:10.37,2013-10-23 21:51:00,
2013-10-23 17:56:00,46.1,36.1,29.62,NNW,328,0.0,0.0,68,0.00,CLR,,0.01,WeatherDisplay:10.37,2013-10-23 21:56:00,
2013-10-23 18:01:00,46.0,36.4,29.62,NW,306,0.0,0.0,69,0.00,CLR,,0.01,WeatherDisplay:10.37,2013-10-23 22:01:00,
2013-10-23 18:06:00,46.0,36.4,29.63,NW,306,0.0,0.0,69,0.00,CLR,,0.01,WeatherDisplay:10.37,2013-10-23 22:06:00,
2013-10-23 18:11:00,45.8,36.2,29.63,NW,309,0.0,0.0,69,0.00,CLR,,0.01,WeatherDisplay:10.37,2013-10-23 22:11:00,
2013-10-23 18:16:00,45.8,36.6,29.63,NW,309,0.0,0.0,70,0.00,CLR,,0.01,WeatherDisplay:10.37,2013-10-23 22:16:00,
2013-10-23 18:21:00,45.7,36.1,29.63,NNW,330,0.0,0.0,69,0.00,CLR,,0.01,WeatherDisplay:10.37,2013-10-23 22:21:00,
2013-10-23 18:26:00,45.5,35.9,29.63,NW,304,0.6,0.0,69,0.00,CLR,,0.01,WeatherDisplay:10.37,2013-10-23 22:26:00,
2013-10-23 18:31:00,45.5,35.9,29.63,North,354,0.0,0.0,69,0.00,CLR,,0.01,WeatherDisplay:10.37,2013-10-23 22:31:00,
2013-10-23 18:36:00,45.4,35.8,29.64,North,0,0.9,1.0,69,0.00,CLR,,0.01,WeatherDisplay:10.37,2013-10-23 22:36:00,
2013-10-23 18:41:00,45.4,36.2,29.64,NNW,340,0.0,0.0,70,0.00,CLR,,0.01,WeatherDisplay:10.37,2013-10-23 22:41:00,
2013-10-23 18:46:00,45.2,36.0,29.64,NNW,340,0.0,0.0,70,0.00,CLR,,0.01,WeatherDisplay:10.37,2013-10-23 22:46:00,
2013-10-23 18:51:00,45.2,36.4,29.64,NNW,344,0.0,0.0,71,0.00,CLR,,0.01,WeatherDisplay:10.37,2013-10-23 22:51:00,
2013-10-23 18:56:00,45.1,35.9,29.65,NNW,342,0.0,0.0,70,0.00,CLR,,0.01,WeatherDisplay:10.37,2013-10-23 22:56:00,
2013-10-23 19:01:00,44.9,35.7,29.65,North,359,0.0,0.0,70,0.00,CLR,,0.01,WeatherDisplay:10.37,2013-10-23 23:01:00,
2013-10-23 19:06:00,44.9,35.7,29.65,North,0,0.0,0.0,70,0.00,CLR,,0.01,WeatherDisplay:10.37,2013-10-23 23:06:00,
2013-10-23 19:11:00,44.8,35.6,29.65,North,352,0.0,0.0,70,0.00,CLR,,0.01,WeatherDisplay:10.37,2013-10-23 23:11:00,
2013-10-23 19:16:00,44.5,35.3,29.65,NNW,329,0.6,4.6,70,0.00,CLR,,0.01,WeatherDisplay:10.37,2013-10-23 23:16:00,
2013-10-23 19:21:00,44.3,35.1,29.65,North,0,0.0,0.0,70,0.00,CLR,,0.01,WeatherDisplay:10.37,2013-10-23 23:21:00,
2013-10-23 19:26:00,44.1,34.9,29.65,NW,309,0.0,0.0,70,0.00,CLR,,0.01,WeatherDisplay:10.37,2013-10-23 23:26:00,
2013-10-23 19:31:00,44.1,34.9,29.66,NW,316,0.0,0.0,70,0.00,CLR,,0.01,WeatherDisplay:10.37,2013-10-23 23:31:00,
2013-10-23 19:36:00,43.9,34.7,29.66,NNW,333,0.6,2.0,70,0.00,CLR,,0.01,WeatherDisplay:10.37,2013-10-23 23:36:00,
2013-10-23 19:41:00,43.8,34.6,29.66,NNW,336,0.0,0.0,70,0.00,CLR,,0.01,WeatherDisplay:10.37,2013-10-23 23:41:00,
2013-10-23 19:46:00,43.5,34.7,29.66,WNW,298,0.2,3.5,71,0.00,CLR,,0.01,WeatherDisplay:10.37,2013-10-23 23:46:00,
2013-10-23 19:51:00,43.3,34.5,29.66,NW,305,0.0,0.0,71,0.00,CLR,,0.01,WeatherDisplay:10.37,2013-10-23 23:51:00,
2013-10-23 19:56:00,43.2,34.4,29.67,WNW,301,0.0,2.3,71,0.00,CLR,,0.01,WeatherDisplay:10.37,2013-10-23 23:56:00,
2013-10-23 20:01:00,43.1,34.3,29.67,WNW,302,0.0,0.0,71,0.00,CLR,,0.01,WeatherDisplay:10.37,2013-10-24 00:01:00,
2013-10-23 20:06:00,42.9,34.1,29.67,WNW,289,1.7,5.8,71,0.00,CLR,,0.01,WeatherDisplay:10.37,2013-10-24 00:06:00,
2013-10-23 20:11:00,42.9,34.1,29.67,West,274,0.0,0.0,71,0.00,CLR,,0.01,WeatherDisplay:10.37,2013-10-24 00:11:00,
2013-10-23 20:16:00,42.8,34.0,29.67,WNW,301,0.0,0.0,71,0.00,CLR,,0.01,WeatherDisplay:10.37,2013-10-24 00:16:00,
2013-10-23 20:21:00,42.8,34.4,29.67,WNW,301,0.0,0.0,72,0.00,CLR,,0.01,WeatherDisplay:10.37,2013-10-24 00:21:00,
2013-10-23 20:26:00,42.5,34.1,29.67,WNW,301,0.0,0.0,72,0.00,CLR,,0.01,WeatherDisplay:10.37,2013-10-24 00:26:00,
2013-10-23 20:31:00,42.2,34.2,29.67,WNW,301,0.0,0.0,73,0.00,CLR,,0.01,WeatherDisplay:10.37,2013-10-24 00:31:00,
2013-10-23 20:36:00,42.1,34.1,29.68,WNW,299,0.0,0.0,73,0.00,CLR,,0.01,WeatherDisplay:10.37,2013-10-24 00:36:00,
2013-10-23 20:41:00,42.1,34.1,29.68,WNW,282,1.2,4.6,73,0.00,CLR,,0.01,WeatherDisplay:10.37,2013-10-24 00:41:00,
2013-10-23 20:46:00,42.1,34.4,29.68,WNW,288,0.2,0.0,74,0.00,CLR,,0.01,WeatherDisplay:10.37,2013-10-24 00:46:00,
2013-10-23 20:51:00,41.8,34.1,29.68,West,268,0.3,4.6,74,0.00,CLR,,0.01,WeatherDisplay:10.37,2013-10-24 00:51:00,
2013-10-23 20:56:00,41.6,34.3,29.68,West,274,0.0,0.0,75,0.00,CLR,,0.01,WeatherDisplay:10.37,2013-10-24 00:56:00,
2013-10-23 21:01:00,41.6,34.3,29.68,West,274,0.0,0.0,75,0.00,CLR,,0.01,WeatherDisplay:10.37,2013-10-24 01:01:00,
2013-10-23 21:06:00,41.6,34.3,29.69,WNW,296,0.0,0.0,75,0.00,CLR,,0.01,WeatherDisplay:10.37,2013-10-24 01:06:00,
2013-10-23 21:11:00,41.5,34.2,29.69,West,268,0.0,0.0,75,0.00,CLR,,0.01,WeatherDisplay:10.37,2013-10-24 01:11:00,
2013-10-23 21:16:00,41.5,34.2,29.69,WNW,294,0.0,0.0,75,0.00,CLR,,0.01,WeatherDisplay:10.37,2013-10-24 01:16:00,
2013-10-23 21:21:00,41.5,34.5,29.69,WNW,288,0.0,0.0,76,0.00,CLR,,0.01,WeatherDisplay:10.37,2013-10-24 01:21:00,
2013-10-23 21:26:00,41.5,34.5,29.69,NW,306,0.0,0.0,76,0.00,CLR,,0.01,WeatherDisplay:10.37,2013-10-24 01:26:00,
2013-10-23 21:31:00,41.3,34.3,29.69,WNW,284,0.2,5.8,76,0.00,CLR,,0.01,WeatherDisplay:10.37,2013-10-24 01:31:00,
2013-10-23 21:36:00,41.3,34.3,29.69,West,281,0.0,0.0,76,0.00,CLR,,0.01,WeatherDisplay:10.37,2013-10-24 01:36:00,
2013-10-23 21:41:00,41.2,34.5,29.70,WNW,287,0.0,0.0,77,0.00,CLR,,0.01,WeatherDisplay:10.37,2013-10-24 01:41:00,
2013-10-23 21:46:00,41.1,34.4,29.70,WNW,295,0.7,8.1,77,0.00,CLR,,0.01,WeatherDisplay:10.37,2013-10-24 01:46:00,
2013-10-23 21:51:00,41.1,34.4,29.70,West,270,0.0,0.0,77,0.00,CLR,,0.01,WeatherDisplay:10.37,2013-10-24 01:51:00,
2013-10-23 21:56:00,40.9,34.2,29.70,WNW,282,0.0,3.5,77,0.00,CLR,,0.01,WeatherDisplay:10.37,2013-10-24 01:56:00,
2013-10-23 22:01:00,40.8,34.5,29.70,West,270,0.8,3.5,78,0.00,CLR,,0.01,WeatherDisplay:10.37,2013-10-24 02:01:00,
2013-10-23 22:06:00,40.6,34.3,29.70,West,272,0.0,0.0,78,0.00,CLR,,0.01,WeatherDisplay:10.37,2013-10-24 02:06:00,
2013-10-23 22:11:00,40.6,34.3,29.70,WSW,248,0.0,0.0,78,0.00,CLR,,0.01,WeatherDisplay:10.37,2013-10-24 02:11:00,
2013-10-23 22:16:00,40.6,34.6,29.70,West,271,0.0,0.0,79,0.00,CLR,,0.01,WeatherDisplay:10.37,2013-10-24 02:16:00,
2013-10-23 22:21:00,40.5,34.5,29.71,West,264,0.0,2.3,79,0.00,CLR,,0.01,WeatherDisplay:10.37,2013-10-24 02:21:00,
2013-10-23 22:26:00,40.6,34.6,29.71,WNW,284,0.5,3.5,79,0.00,CLR,,0.01,WeatherDisplay:10.37,2013-10-24 02:26:00,
2013-10-23 22:31:00,40.6,34.6,29.71,West,281,0.6,3.5,79,0.00,CLR,,0.01,WeatherDisplay:10.37,2013-10-24 02:31:00,
2013-10-23 22:36:00,40.5,34.5,29.71,WSW,256,0.0,0.0,79,0.00,CLR,,0.01,WeatherDisplay:10.37,2013-10-24 02:36:00,
2013-10-23 22:41:00,40.5,34.5,29.71,West,272,0.0,0.0,79,0.00,CLR,,0.01,WeatherDisplay:10.37,2013-10-24 02:41:00,
2013-10-23 22:46:00,40.3,34.6,29.71,SW,229,0.0,0.0,80,0.00,CLR,,0.01,WeatherDisplay:10.37,2013-10-24 02:46:00,
2013-10-23 22:51:00,40.3,34.6,29.71,WNW,289,0.0,0.0,80,0.00,CLR,,0.01,WeatherDisplay:10.37,2013-10-24 02:51:00,
2013-10-23 22:57:00,40.2,34.5,29.71,WNW,294,0.0,0.0,80,0.00,CLR,,0.01,WeatherDisplay:10.37,2013-10-24 02:57:00,
2013-10-23 23:02:00,40.2,34.5,29.70,WNW,291,0.0,0.0,80,0.00,CLR,,0.01,WeatherDisplay:10.37,2013-10-24 03:02:00,
2013-10-23 23:07:00,40.1,34.4,29.70,WNW,295,0.0,0.0,80,0.00,CLR,,0.01,WeatherDisplay:10.37,2013-10-24 03:07:00,
2013-10-23 23:12:00,40.1,34.7,29.70,WNW,301,2.1,4.6,81,0.00,CLR,,0.01,WeatherDisplay:10.37,2013-10-24 03:12:00,
2013-10-23 23:17:00,40.2,34.5,29.70,West,268,1.4,6.9,80,0.00,CLR,,0.01,WeatherDisplay:10.37,2013-10-24 03:17:00,
2013-10-23 23:22:00,40.2,34.5,29.71,WNW,289,0.0,0.0,80,0.00,CLR,,0.01,WeatherDisplay:10.37,2013-10-24 03:22:00,
2013-10-23 23:27:00,40.2,34.5,29.71,WNW,289,0.0,0.0,80,0.00,CLR,,0.01,WeatherDisplay:10.37,2013-10-24 03:27:00,
2013-10-23 23:32:00,40.2,34.5,29.71,West,280,1.1,5.8,80,0.00,CLR,,0.01,WeatherDisplay:10.37,2013-10-24 03:32:00,
2013-10-23 23:37:00,40.1,34.4,29.72,WNW,302,0.0,0.0,80,0.00,CLR,,0.01,WeatherDisplay:10.37,2013-10-24 03:37:00,
2013-10-23 23:42:00,39.9,34.5,29.72,WNW,287,0.0,0.0,81,0.00,CLR,,0.01,WeatherDisplay:10.37,2013-10-24 03:42:00,
2013-10-23 23:47:00,39.8,34.4,29.72,WNW,292,0.1,4.0,81,0.00,CLR,,0.01,WeatherDisplay:10.37,2013-10-24 03:47:00,
2013-10-23 23:52:00,39.8,34.4,29.72,WNW,296,0.0,0.0,81,0.00,CLR,,0.01,WeatherDisplay:10.37,2013-10-24 03:52:00,
2013-10-23 23:57:00,39.6,34.2,29.72,West,277,0.8,3.5,81,0.00,CLR,,0.01,WeatherDisplay:10.37,2013-10-24 03:57:00,